createdAt,value
2022-10-25T00:02:30.808Z,24.52
2022-10-25T00:05:00.473Z,23.35
2022-10-25T00:07:27.757Z,23.95
2022-10-25T00:09:55.210Z,21.90
2022-10-25T00:12:29.561Z,15.98
2022-10-25T00:15:03.512Z,17.17
2022-10-25T00:17:33.605Z,19.00
2022-10-25T00:20:05.927Z,15.57
2022-10-25T00:22:35.456Z,17.42
2022-10-25T00:25:06.481Z,18.00
2022-10-25T00:27:33.886Z,16.92
2022-10-25T00:30:01.521Z,20.02
2022-10-25T00:32:35.595Z,15.65
2022-10-25T00:35:06.193Z,20.77
2022-10-25T00:37:33.344Z,18.65
2022-10-25T00:40:00.667Z,13.38
2022-10-25T00:42:27.730Z,20.98
2022-10-25T00:45:12.704Z,18.48
2022-10-25T00:47:45.966Z,16.70
2022-10-25T00:50:22.709Z,17.15
2022-10-25T00:52:56.105Z,18.75
2022-10-25T00:55:28.644Z,16.67
2022-10-25T00:58:08.042Z,16.80
2022-10-25T01:00:41.233Z,14.57
2022-10-25T01:03:13.730Z,18.45
2022-10-25T01:05:45.505Z,11.77
2022-10-25T01:08:13.019Z,24.35
2022-10-25T01:10:42.796Z,15.20
2022-10-25T01:13:10.045Z,15.50
2022-10-25T01:16:10.733Z,19.60
2022-10-25T01:18:48.371Z,14.48
2022-10-25T01:21:44.392Z,16.77
2022-10-25T01:24:29.573Z,15.50
2022-10-25T01:27:24.844Z,15.00
2022-10-25T01:30:12.752Z,15.68
2022-10-25T01:33:00.695Z,16.02
2022-10-25T01:35:50.087Z,14.23
2022-10-25T01:38:44.162Z,14.63
2022-10-25T01:41:50.158Z,16.90
2022-10-25T01:44:32.269Z,15.18
2022-10-25T01:47:03.321Z,21.38
2022-10-25T01:49:39.709Z,21.00
2022-10-25T01:52:08.996Z,16.67
2022-10-25T01:54:38.782Z,16.60
2022-10-25T01:57:33.081Z,19.08
2022-10-25T02:00:09.498Z,16.30
2022-10-25T02:02:50.450Z,20.20
2022-10-25T02:05:23.743Z,17.02
2022-10-25T02:07:55.854Z,20.08
2022-10-25T02:10:41.136Z,13.68
2022-10-25T02:13:27.036Z,22.92
2022-10-25T02:16:07.218Z,22.88
2022-10-25T02:18:44.336Z,18.48
2022-10-25T02:21:13.764Z,20.08
2022-10-25T02:23:41.995Z,18.10
2022-10-25T02:26:15.325Z,15.32
2022-10-25T02:28:42.749Z,17.83
2022-10-25T02:31:17.509Z,18.83
2022-10-25T02:33:52.529Z,22.02
2022-10-25T02:36:28.534Z,16.83
2022-10-25T02:38:57.435Z,19.02
2022-10-25T02:41:24.857Z,17.38
2022-10-25T02:43:52.015Z,17.45
2022-10-25T02:46:21.716Z,15.30
2022-10-25T02:48:52.169Z,19.05
2022-10-25T02:51:23.004Z,16.88
2022-10-25T02:53:50.059Z,16.48
2022-10-25T02:56:23.253Z,14.63
2022-10-25T02:58:58.634Z,20.92
2022-10-25T03:01:32.651Z,14.95
2022-10-25T03:04:02.056Z,19.00
2022-10-25T03:06:31.800Z,19.60
2022-10-25T03:08:58.843Z,21.42
2022-10-25T03:11:31.046Z,21.67
2022-10-25T03:13:58.061Z,38.25
2022-10-25T03:16:32.473Z,14.05
2022-10-25T03:19:00.107Z,15.27
2022-10-25T03:21:27.478Z,19.60
2022-10-25T03:23:59.445Z,20.85
2022-10-25T03:26:31.642Z,16.67
2022-10-25T03:29:03.626Z,18.60
2022-10-25T03:31:31.031Z,16.23
2022-10-25T03:34:00.414Z,21.35
2022-10-25T03:36:29.998Z,23.33
2022-10-25T03:38:59.430Z,24.88
2022-10-25T03:41:28.941Z,19.73
2022-10-25T03:43:58.315Z,22.23
2022-10-25T03:46:25.766Z,23.25
2022-10-25T03:48:55.381Z,15.90
2022-10-25T03:51:25.242Z,17.67
2022-10-25T03:53:57.127Z,24.17
2022-10-25T03:56:26.739Z,24.25
2022-10-25T03:58:55.938Z,20.58
2022-10-25T04:01:23.291Z,17.45
2022-10-25T04:03:52.660Z,17.77
2022-10-25T04:06:19.994Z,26.23
2022-10-25T04:08:47.037Z,22.48
2022-10-25T04:11:21.337Z,22.67
2022-10-25T04:13:50.806Z,20.55
2022-10-25T04:16:23.386Z,27.35
2022-10-25T04:18:53.323Z,23.15
2022-10-25T04:21:21.373Z,28.63
2022-10-25T04:23:52.289Z,24.05
2022-10-25T04:26:22.113Z,26.30
2022-10-25T04:28:56.575Z,23.20
2022-10-25T04:31:24.529Z,27.65
2022-10-25T04:33:52.892Z,29.38
2022-10-25T04:36:20.966Z,24.90
2022-10-25T04:38:56.068Z,25.77
2022-10-25T04:41:23.445Z,37.08
2022-10-25T04:43:58.086Z,32.85
2022-10-25T04:46:28.346Z,29.20
2022-10-25T04:48:58.094Z,25.98
2022-10-25T04:51:27.809Z,27.77
2022-10-25T04:53:59.337Z,23.67
2022-10-25T04:56:32.011Z,25.33
2022-10-25T04:59:01.147Z,28.35
2022-10-25T05:01:30.902Z,25.88
2022-10-25T05:04:00.637Z,28.20
2022-10-25T05:06:27.982Z,23.92
2022-10-25T05:08:55.762Z,24.80
2022-10-25T05:11:28.396Z,24.73
2022-10-25T05:13:55.430Z,26.85
2022-10-25T05:16:25.881Z,27.13
2022-10-25T05:18:56.289Z,25.30
2022-10-25T05:21:31.585Z,25.30
2022-10-25T05:24:02.524Z,28.55
2022-10-25T05:26:30.893Z,23.17
2022-10-25T05:29:00.282Z,23.58
2022-10-25T05:31:32.189Z,26.83
2022-10-25T05:36:33.313Z,46.92
2022-10-25T05:39:01.207Z,45.38
2022-10-25T05:41:33.402Z,52.95
2022-10-25T05:44:08.813Z,53.65
2022-10-25T05:46:38.281Z,57.78
2022-10-25T05:49:11.417Z,53.38
2022-10-25T05:51:39.098Z,47.55
2022-10-25T05:54:16.081Z,53.00
2022-10-25T05:56:46.033Z,56.53
2022-10-25T05:59:14.826Z,63.75
2022-10-25T06:01:44.877Z,80.63
2022-10-25T06:04:15.680Z,81.00
2022-10-25T06:06:45.623Z,86.00
2022-10-25T06:09:13.562Z,73.15
2022-10-25T06:11:45.907Z,67.10
2022-10-25T06:14:17.976Z,63.88
2022-10-25T06:19:20.163Z,50.88
2022-10-25T06:21:49.927Z,44.70
2022-10-25T06:24:17.617Z,53.35
2022-10-25T06:26:44.814Z,48.83
2022-10-25T06:29:11.848Z,44.97
2022-10-25T06:31:39.167Z,40.13
2022-10-25T06:34:06.191Z,40.50
2022-10-25T06:36:35.748Z,41.85
2022-10-25T06:39:10.042Z,46.10
2022-10-25T06:41:37.879Z,39.60
2022-10-25T06:44:10.769Z,32.83
2022-10-25T06:49:31.945Z,28.20
2022-10-25T06:52:06.478Z,22.30
2022-10-25T06:54:33.831Z,26.17
2022-10-25T06:57:05.387Z,28.55
2022-10-25T06:59:37.133Z,20.58
2022-10-25T07:02:07.105Z,34.88
2022-10-25T07:04:36.358Z,31.67
2022-10-25T07:07:03.658Z,24.38
2022-10-25T07:09:30.728Z,25.05
2022-10-25T07:12:02.307Z,25.75
2022-10-25T07:14:31.418Z,20.23
2022-10-25T07:17:00.918Z,20.27
2022-10-25T07:19:30.184Z,29.80
2022-10-25T07:21:59.557Z,26.08
2022-10-25T07:24:29.132Z,23.35
2022-10-25T07:26:56.519Z,25.83
2022-10-25T07:29:26.094Z,23.90
2022-10-25T07:31:58.434Z,23.83
2022-10-25T07:34:30.141Z,24.52
2022-10-25T07:36:57.481Z,23.08
2022-10-25T07:39:24.620Z,23.38
2022-10-25T07:41:54.362Z,18.65
2022-10-25T07:44:25.072Z,20.00
2022-10-25T07:46:57.175Z,22.80
2022-10-25T07:51:54.020Z,18.77
2022-10-25T07:54:23.427Z,23.80
2022-10-25T07:56:55.673Z,14.68
2022-10-25T07:59:25.079Z,13.50
2022-10-25T08:01:52.698Z,18.48
2022-10-25T08:04:22.026Z,15.20
2022-10-25T08:06:54.264Z,16.92
2022-10-25T08:09:37.278Z,17.95
2022-10-25T08:12:05.573Z,14.20
2022-10-25T08:14:38.144Z,16.33
2022-10-25T08:17:08.747Z,20.45
2022-10-25T08:19:40.614Z,15.13
2022-10-25T08:22:10.965Z,15.35
2022-10-25T08:24:42.977Z,15.65
2022-10-25T08:27:12.279Z,13.02
2022-10-25T08:29:44.573Z,17.55
2022-10-25T08:32:14.714Z,18.20
2022-10-25T08:34:41.896Z,11.25
2022-10-25T08:37:12.650Z,13.18
2022-10-25T08:39:42.009Z,14.18
2022-10-25T08:42:21.035Z,15.05
2022-10-25T08:45:08.584Z,17.25
2022-10-25T08:47:42.641Z,16.95
2022-10-25T08:50:16.565Z,14.73
2022-10-25T08:52:53.690Z,17.77
2022-10-25T08:55:31.945Z,20.05
2022-10-25T08:58:03.973Z,8.77
2022-10-25T09:00:39.399Z,11.05
2022-10-25T09:03:24.753Z,11.60
2022-10-25T09:06:02.787Z,10.02
2022-10-25T09:08:52.410Z,13.68
2022-10-25T09:11:23.926Z,14.15
2022-10-25T09:14:14.625Z,16.48
2022-10-25T09:16:57.198Z,12.35
2022-10-25T09:20:16.246Z,14.52
2022-10-25T09:22:48.386Z,19.15
2022-10-25T09:25:33.515Z,10.05
2022-10-25T09:30:37.724Z,8.38
2022-10-25T09:33:11.750Z,10.98
2022-10-25T09:35:49.466Z,13.43
2022-10-25T09:38:28.766Z,12.32
2022-10-25T09:41:11.802Z,11.45
2022-10-25T09:43:48.456Z,10.15
2022-10-25T09:46:25.369Z,11.13
2022-10-25T09:49:04.842Z,11.50
2022-10-25T09:51:35.991Z,9.98
2022-10-25T09:54:19.030Z,19.02
2022-10-25T09:56:48.979Z,19.27
2022-10-25T09:59:27.765Z,10.32
2022-10-25T10:02:00.107Z,14.05
2022-10-25T10:04:41.639Z,12.68
2022-10-25T10:07:18.112Z,11.05
2022-10-25T10:09:48.642Z,12.18
2022-10-25T10:12:25.702Z,13.52
2022-10-25T10:14:58.958Z,10.18
2022-10-25T10:17:30.666Z,15.88
2022-10-25T10:20:15.592Z,10.20
2022-10-25T10:23:00.003Z,12.85
2022-10-25T10:25:32.546Z,7.07
2022-10-25T10:28:02.114Z,10.10
2022-10-25T10:30:31.865Z,15.27
2022-10-25T10:33:03.122Z,12.02
2022-10-25T10:35:37.036Z,11.93
2022-10-25T10:40:47.887Z,16.38
2022-10-25T10:43:34.243Z,13.20
2022-10-25T10:46:08.243Z,6.80
2022-10-25T10:48:45.851Z,18.35
2022-10-25T10:54:31.970Z,14.00
2022-10-25T10:57:06.514Z,8.88
2022-10-25T11:00:04.013Z,13.98
2022-10-25T11:02:41.485Z,9.38
2022-10-25T11:05:32.523Z,11.60
2022-10-25T11:08:06.927Z,10.32
2022-10-25T11:10:38.763Z,10.75
2022-10-25T11:13:18.690Z,15.25
2022-10-25T11:18:45.822Z,8.73
2022-10-25T11:21:27.526Z,8.90
2022-10-25T11:24:12.254Z,15.10
2022-10-25T11:27:07.503Z,13.45
2022-10-25T11:29:49.306Z,10.10
2022-10-25T11:32:17.201Z,18.45
2022-10-25T11:35:09.950Z,12.02
2022-10-25T11:37:48.040Z,16.58
2022-10-25T11:40:21.790Z,11.05
2022-10-25T11:43:01.614Z,13.73
2022-10-25T11:45:48.465Z,16.20
2022-10-25T11:48:47.830Z,10.85
2022-10-25T11:51:42.154Z,13.70
2022-10-25T11:54:25.758Z,12.40
2022-10-25T11:57:04.350Z,11.80
2022-10-25T12:00:19.634Z,13.75
2022-10-25T12:03:14.350Z,9.43
2022-10-25T12:05:51.450Z,13.93
2022-10-25T12:08:55.990Z,16.45
2022-10-25T12:11:31.170Z,8.80
2022-10-25T12:14:06.782Z,12.50
2022-10-25T12:16:36.370Z,12.88
2022-10-25T12:19:19.537Z,9.10
2022-10-25T12:22:01.689Z,4.17
2022-10-25T12:24:37.795Z,6.78
2022-10-25T12:27:13.264Z,7.57
2022-10-25T12:29:46.657Z,12.13
2022-10-25T12:32:32.251Z,8.52
2022-10-25T12:35:01.546Z,13.73
2022-10-25T12:37:39.641Z,7.70
2022-10-25T12:40:15.791Z,6.38
2022-10-25T12:42:51.239Z,9.40
2022-10-25T12:45:45.837Z,9.20
2022-10-25T12:48:48.027Z,8.68
2022-10-25T12:51:48.803Z,6.72
2022-10-25T12:54:40.409Z,7.13
2022-10-25T12:57:30.906Z,15.98
2022-10-25T13:03:10.237Z,10.20
2022-10-25T13:05:56.829Z,12.82
2022-10-25T13:08:26.996Z,8.35
2022-10-25T13:11:03.845Z,11.05
2022-10-25T13:13:53.889Z,11.93
2022-10-25T13:16:33.917Z,14.50
2022-10-25T13:19:25.951Z,8.27
2022-10-25T13:22:12.237Z,6.88
2022-10-25T13:24:48.232Z,8.15
2022-10-25T13:27:19.760Z,6.82
2022-10-25T13:30:07.326Z,7.28
2022-10-25T13:32:42.287Z,8.82
2022-10-25T13:35:22.058Z,4.18
2022-10-25T13:38:06.110Z,9.40
2022-10-25T13:40:38.230Z,8.35
2022-10-25T13:43:22.430Z,9.10
2022-10-25T13:45:58.093Z,4.25
2022-10-25T13:48:32.698Z,8.85
2022-10-25T13:51:10.779Z,7.05
2022-10-25T13:53:50.653Z,6.88
2022-10-25T13:56:34.079Z,8.20
2022-10-25T13:59:04.871Z,5.82
2022-10-25T14:01:54.471Z,12.75
2022-10-25T14:04:35.223Z,7.65
2022-10-25T14:07:44.817Z,8.35
2022-10-25T14:10:26.523Z,18.40
2022-10-25T14:12:58.712Z,7.07
2022-10-25T14:15:45.570Z,5.93
2022-10-25T14:18:24.758Z,5.18
2022-10-25T14:21:01.933Z,5.22
2022-10-25T14:23:36.593Z,12.88
2022-10-25T14:26:14.234Z,4.80
2022-10-25T14:28:43.786Z,7.32
2022-10-25T14:31:21.181Z,9.70
2022-10-25T14:33:52.167Z,6.90
2022-10-25T14:36:32.739Z,10.75
2022-10-25T14:41:32.293Z,8.95
2022-10-25T14:44:30.230Z,9.88
2022-10-25T14:47:04.742Z,11.55
2022-10-25T14:49:33.866Z,9.25
2022-10-25T14:52:06.503Z,9.52
2022-10-25T14:54:37.159Z,8.68
2022-10-25T14:57:13.908Z,13.32
2022-10-25T14:59:49.241Z,7.70
2022-10-25T15:02:30.220Z,7.28
2022-10-25T15:05:00.117Z,5.45
2022-10-25T15:07:31.903Z,11.02
2022-10-25T15:12:32.869Z,8.77
2022-10-25T15:15:33.575Z,8.43
2022-10-25T15:18:00.901Z,11.25
2022-10-25T15:20:38.698Z,17.63
2022-10-25T15:23:18.979Z,8.63
2022-10-25T15:25:48.541Z,9.77
2022-10-25T15:28:20.073Z,8.90
2022-10-25T15:30:49.635Z,9.45
2022-10-25T15:33:30.829Z,16.15
2022-10-25T15:36:01.218Z,6.20
2022-10-25T15:39:06.805Z,7.45
2022-10-25T15:41:23.082Z,6.70
2022-10-25T15:43:56.496Z,9.35
2022-10-25T15:46:38.271Z,16.95
2022-10-25T15:49:08.259Z,11.80
2022-10-25T15:54:20.133Z,7.32
2022-10-25T15:56:47.997Z,9.13
2022-10-25T16:01:49.581Z,10.40
2022-10-25T16:04:22.238Z,10.35
2022-10-25T16:06:51.912Z,12.23
2022-10-25T16:09:19.231Z,10.23
2022-10-25T16:11:54.167Z,17.13
2022-10-25T16:14:26.137Z,18.17
2022-10-25T16:16:58.149Z,10.30
2022-10-25T16:19:31.670Z,10.65
2022-10-25T16:21:59.854Z,9.18
2022-10-25T16:24:27.259Z,8.55
2022-10-25T16:26:54.418Z,15.32
2022-10-25T16:29:26.223Z,15.02
2022-10-25T16:31:56.112Z,16.08
2022-10-25T16:34:23.325Z,12.00
2022-10-25T16:36:52.500Z,11.75
2022-10-25T16:39:22.289Z,14.77
2022-10-25T16:41:54.899Z,13.05
2022-10-25T16:44:24.744Z,11.02
2022-10-25T16:46:53.995Z,12.77
2022-10-25T16:49:25.988Z,14.63
2022-10-25T16:54:24.292Z,21.80
2022-10-25T16:56:53.771Z,15.13
2022-10-25T16:59:21.107Z,12.05
2022-10-25T17:01:54.265Z,15.60
2022-10-25T17:04:24.792Z,14.70
2022-10-25T17:06:54.058Z,16.83
2022-10-25T17:09:28.965Z,14.43
2022-10-25T17:11:56.110Z,14.30
2022-10-25T17:14:25.789Z,19.75
2022-10-25T17:17:02.301Z,18.50
2022-10-25T17:19:30.836Z,18.25
2022-10-25T17:22:00.027Z,15.82
2022-10-25T17:24:33.018Z,22.55
2022-10-25T17:27:00.114Z,14.20
2022-10-25T17:29:29.904Z,23.10
2022-10-25T17:31:57.069Z,19.48
2022-10-25T17:34:24.514Z,27.25
2022-10-25T17:36:56.158Z,19.90
2022-10-25T17:39:25.798Z,23.33
2022-10-25T17:41:59.863Z,21.75
2022-10-25T17:44:29.225Z,25.88
2022-10-25T17:47:03.065Z,15.00
2022-10-25T17:49:34.222Z,24.10
2022-10-25T17:52:01.361Z,21.35
2022-10-25T17:54:37.210Z,20.15
2022-10-25T17:57:05.851Z,15.90
2022-10-25T17:59:33.616Z,17.08
2022-10-25T18:02:00.824Z,17.48
2022-10-25T18:04:40.793Z,21.17
2022-10-25T18:07:15.213Z,21.45
2022-10-25T18:09:47.225Z,27.92
2022-10-25T18:12:14.234Z,19.83
2022-10-25T18:14:43.749Z,18.20
2022-10-25T18:17:13.023Z,13.15
2022-10-25T18:19:42.340Z,15.02
2022-10-25T18:22:14.202Z,16.10
2022-10-25T18:24:46.347Z,18.83
2022-10-25T18:27:18.234Z,14.55
2022-10-25T18:29:50.719Z,19.85
2022-10-25T18:32:17.813Z,18.27
2022-10-25T18:34:47.683Z,17.35
2022-10-25T18:37:16.982Z,13.45
2022-10-25T18:39:47.026Z,16.63
2022-10-25T18:42:16.402Z,16.13
2022-10-25T18:44:43.985Z,20.50
2022-10-25T18:47:11.059Z,14.32
2022-10-25T18:49:40.767Z,16.58
2022-10-25T18:52:12.748Z,14.15
2022-10-25T18:54:40.415Z,18.58
2022-10-25T18:57:07.718Z,9.85
2022-10-25T18:59:39.767Z,13.57
2022-10-25T19:02:11.887Z,12.05
2022-10-25T19:04:39.179Z,15.50
2022-10-25T19:07:06.240Z,10.15
2022-10-25T19:09:38.262Z,9.68
2022-10-25T19:12:10.075Z,15.95
2022-10-25T19:14:41.996Z,18.73
2022-10-25T19:17:11.546Z,18.98
2022-10-25T19:19:44.381Z,14.38
2022-10-25T19:22:16.328Z,10.00
2022-10-25T19:24:44.129Z,11.38
2022-10-25T19:27:15.035Z,14.57
2022-10-25T19:29:42.345Z,11.63
2022-10-25T19:32:11.840Z,10.63
2022-10-25T19:34:44.007Z,9.45
2022-10-25T19:39:44.747Z,7.35
2022-10-25T19:42:18.920Z,11.82
2022-10-25T19:44:49.470Z,14.05
2022-10-25T19:47:19.266Z,10.75
2022-10-25T19:49:53.858Z,20.13
2022-10-25T19:52:21.042Z,10.00
2022-10-25T19:54:48.572Z,11.38
2022-10-25T19:57:20.344Z,12.27
2022-10-25T19:59:47.702Z,11.32
2022-10-25T20:02:17.235Z,10.57
2022-10-25T20:04:44.611Z,14.35
2022-10-25T20:07:14.017Z,16.92
2022-10-25T20:09:41.695Z,12.68
2022-10-25T20:12:08.822Z,12.88
2022-10-25T20:14:40.867Z,12.88
2022-10-25T20:17:12.518Z,13.43
2022-10-25T20:19:46.663Z,11.65
2022-10-25T20:22:16.804Z,9.50
2022-10-25T20:24:48.907Z,7.53
2022-10-25T20:29:46.062Z,8.85
2022-10-25T20:32:17.639Z,12.82
2022-10-25T20:34:51.630Z,15.10
2022-10-25T20:37:19.198Z,13.02
2022-10-25T20:39:46.576Z,8.15
2022-10-25T20:42:13.667Z,10.25
2022-10-25T20:44:48.068Z,8.38
2022-10-25T20:47:18.185Z,8.43
2022-10-25T20:49:52.426Z,8.40
2022-10-25T20:52:22.065Z,7.95
2022-10-25T20:54:51.610Z,8.65
2022-10-25T20:57:21.171Z,13.02
2022-10-25T20:59:49.352Z,7.07
2022-10-25T21:02:18.595Z,6.30
2022-10-25T21:04:53.981Z,9.88
2022-10-25T21:07:26.653Z,8.55
2022-10-25T21:09:56.003Z,13.00
2022-10-25T21:12:23.162Z,15.13
2022-10-25T21:14:59.875Z,22.42
2022-10-25T21:17:29.113Z,12.70
2022-10-25T21:19:56.357Z,12.15
2022-10-25T21:22:28.506Z,13.13
2022-10-25T21:25:01.270Z,14.15
2022-10-25T21:27:35.170Z,14.40
2022-10-25T21:30:02.726Z,18.63
2022-10-25T21:32:33.906Z,17.13
2022-10-25T21:35:03.810Z,14.57
2022-10-25T21:37:30.937Z,10.48
2022-10-25T21:40:02.527Z,11.95
2022-10-25T21:42:35.373Z,18.17
2022-10-25T21:45:05.046Z,13.80
2022-10-25T21:47:37.613Z,14.90
2022-10-25T21:50:10.091Z,11.90
2022-10-25T21:52:39.433Z,16.15
2022-10-25T21:55:07.221Z,8.65
2022-10-25T21:57:34.319Z,11.40
2022-10-25T22:00:01.889Z,10.77
2022-10-25T22:02:40.034Z,15.85
2022-10-25T22:05:07.815Z,10.88
2022-10-25T22:07:35.006Z,11.23
2022-10-25T22:10:07.143Z,14.60
2022-10-25T22:12:36.621Z,14.18
2022-10-25T22:15:06.820Z,12.40
2022-10-25T22:17:36.863Z,12.07
2022-10-25T22:20:07.353Z,13.45
2022-10-25T22:22:34.565Z,14.85
2022-10-25T22:25:04.480Z,17.98
2022-10-25T22:27:31.774Z,13.73
2022-10-25T22:30:03.566Z,14.80
2022-10-25T22:32:33.068Z,12.13
2022-10-25T22:35:03.702Z,15.30
2022-10-25T22:37:35.110Z,13.23
2022-10-25T22:40:08.403Z,13.88
2022-10-25T22:42:37.709Z,11.95
2022-10-25T22:45:09.945Z,16.90
2022-10-25T22:47:36.964Z,16.13
2022-10-25T22:50:06.893Z,19.02
2022-10-25T22:52:39.331Z,19.92
2022-10-25T22:55:10.384Z,17.15
2022-10-25T22:57:39.767Z,14.88
2022-10-25T23:00:09.969Z,20.88
2022-10-25T23:02:39.485Z,22.33
2022-10-25T23:05:09.333Z,20.40
2022-10-25T23:07:38.637Z,16.30
2022-10-25T23:10:06.210Z,16.63
2022-10-25T23:12:38.114Z,15.80
2022-10-25T23:15:08.127Z,19.13
2022-10-25T23:17:37.801Z,18.80
2022-10-25T23:20:05.593Z,17.88
2022-10-25T23:22:32.590Z,14.07
2022-10-25T23:25:02.121Z,18.00
2022-10-25T23:27:31.393Z,18.90
2022-10-25T23:29:58.653Z,15.15
2022-10-25T23:32:28.047Z,17.15
2022-10-25T23:34:57.587Z,16.52
2022-10-25T23:37:29.273Z,13.23
2022-10-25T23:39:56.611Z,13.52
2022-10-25T23:42:28.015Z,21.05
2022-10-25T23:44:55.233Z,16.95
2022-10-25T23:47:26.733Z,14.43
2022-10-25T23:49:56.254Z,15.55
2022-10-25T23:52:24.013Z,16.52
2022-10-25T23:54:55.830Z,18.48
2022-10-25T23:57:25.593Z,13.00
2022-10-25T23:59:55.349Z,21.55
